sensor_id;sensor_type;location;lat;lon;timestamp;P1;durP1;ratioP1;P2;durP2;ratioP2
43620;SDS011;29213;50.770;7.298;2024-02-15T00:01:30;4.20;;;1.75;;
43620;SDS011;29213;50.770;7.298;2024-02-15T00:03:56;3.75;;;1.67;;
43620;SDS011;29213;50.770;7.298;2024-02-15T00:06:22;4.82;;;2.10;;
43620;SDS011;29213;50.770;7.298;2024-02-15T00:08:48;4.35;;;1.80;;
43620;SDS011;29213;50.770;7.298;2024-02-15T00:11:14;3.22;;;1.75;;
43620;SDS011;29213;50.770;7.298;2024-02-15T00:13:40;5.00;;;2.00;;
43620;SDS011;29213;50.770;7.298;2024-02-15T00:16:06;4.45;;;1.90;;
43620;SDS011;29213;50.770;7.298;2024-02-15T00:18:31;5.30;;;1.92;;
43620;SDS011;29213;50.770;7.298;2024-02-15T00:20:57;4.60;;;1.77;;
43620;SDS011;29213;50.770;7.298;2024-02-15T00:23:23;3.80;;;1.85;;
43620;SDS011;29213;50.770;7.298;2024-02-15T00:25:49;3.58;;;1.85;;
43620;SDS011;29213;50.770;7.298;2024-02-15T00:28:15;4.35;;;2.10;;
43620;SDS011;29213;50.770;7.298;2024-02-15T00:30:40;3.65;;;1.90;;
43620;SDS011;29213;50.770;7.298;2024-02-15T00:33:06;8.82;;;2.15;;
43620;SDS011;29213;50.770;7.298;2024-02-15T00:35:32;4.65;;;1.95;;
43620;SDS011;29213;50.770;7.298;2024-02-15T00:37:58;3.10;;;1.73;;
43620;SDS011;29213;50.770;7.298;2024-02-15T00:40:24;3.20;;;1.90;;
43620;SDS011;29213;50.770;7.298;2024-02-15T00:42:49;4.95;;;1.80;;
43620;SDS011;29213;50.770;7.298;2024-02-15T00:45:14;3.72;;;1.90;;
43620;SDS011;29213;50.770;7.298;2024-02-15T00:47:40;3.53;;;1.95;;
43620;SDS011;29213;50.770;7.298;2024-02-15T00:50:07;3.20;;;1.80;;
43620;SDS011;29213;50.770;7.298;2024-02-15T00:52:34;4.03;;;2.00;;
43620;SDS011;29213;50.770;7.298;2024-02-15T00:55:00;3.67;;;1.75;;
43620;SDS011;29213;50.770;7.298;2024-02-15T00:57:25;2.90;;;1.42;;
43620;SDS011;29213;50.770;7.298;2024-02-15T00:59:50;2.75;;;1.50;;
43620;SDS011;29213;50.770;7.298;2024-02-15T01:02:17;3.33;;;1.58;;
43620;SDS011;29213;50.770;7.298;2024-02-15T01:04:43;3.10;;;1.38;;
43620;SDS011;29213;50.770;7.298;2024-02-15T01:07:10;3.95;;;1.40;;
43620;SDS011;29213;50.770;7.298;2024-02-15T01:09:36;3.50;;;1.50;;
43620;SDS011;29213;50.770;7.298;2024-02-15T01:12:01;3.83;;;1.60;;
43620;SDS011;29213;50.770;7.298;2024-02-15T01:14:29;4.60;;;1.67;;
43620;SDS011;29213;50.770;7.298;2024-02-15T01:16:55;4.18;;;1.60;;
43620;SDS011;29213;50.770;7.298;2024-02-15T01:19:21;2.95;;;1.40;;
43620;SDS011;29213;50.770;7.298;2024-02-15T01:21:46;3.88;;;1.55;;
43620;SDS011;29213;50.770;7.298;2024-02-15T01:24:12;3.22;;;1.45;;
43620;SDS011;29213;50.770;7.298;2024-02-15T01:26:37;3.63;;;1.50;;
43620;SDS011;29213;50.770;7.298;2024-02-15T01:29:03;3.42;;;1.40;;
43620;SDS011;29213;50.770;7.298;2024-02-15T01:31:28;3.53;;;1.50;;
43620;SDS011;29213;50.770;7.298;2024-02-15T01:33:54;3.83;;;1.27;;
43620;SDS011;29213;50.770;7.298;2024-02-15T01:36:19;4.78;;;1.55;;
43620;SDS011;29213;50.770;7.298;2024-02-15T01:38:45;3.70;;;1.50;;
43620;SDS011;29213;50.770;7.298;2024-02-15T01:41:11;3.60;;;1.45;;
43620;SDS011;29213;50.770;7.298;2024-02-15T01:43:36;2.97;;;1.30;;
43620;SDS011;29213;50.770;7.298;2024-02-15T01:46:03;3.35;;;1.30;;
43620;SDS011;29213;50.770;7.298;2024-02-15T01:48:34;3.40;;;1.30;;
43620;SDS011;29213;50.770;7.298;2024-02-15T01:51:01;4.40;;;1.55;;
43620;SDS011;29213;50.770;7.298;2024-02-15T01:53:28;3.95;;;1.40;;
43620;SDS011;29213;50.770;7.298;2024-02-15T01:55:55;4.75;;;1.50;;
43620;SDS011;29213;50.770;7.298;2024-02-15T01:58:23;3.83;;;1.60;;
43620;SDS011;29213;50.770;7.298;2024-02-15T02:00:50;5.05;;;1.38;;
43620;SDS011;29213;50.770;7.298;2024-02-15T02:03:17;3.08;;;1.30;;
43620;SDS011;29213;50.770;7.298;2024-02-15T02:05:43;4.35;;;1.55;;
43620;SDS011;29213;50.770;7.298;2024-02-15T02:08:08;2.78;;;1.13;;
43620;SDS011;29213;50.770;7.298;2024-02-15T02:10:37;3.38;;;1.38;;
43620;SDS011;29213;50.770;7.298;2024-02-15T02:13:03;3.55;;;1.20;;
43620;SDS011;29213;50.770;7.298;2024-02-15T02:15:29;4.18;;;1.65;;
43620;SDS011;29213;50.770;7.298;2024-02-15T02:18:02;3.60;;;1.30;;
43620;SDS011;29213;50.770;7.298;2024-02-15T02:20:34;5.68;;;1.35;;
43620;SDS011;29213;50.770;7.298;2024-02-15T02:23:03;3.42;;;1.35;;
43620;SDS011;29213;50.770;7.298;2024-02-15T02:25:35;4.55;;;1.55;;
43620;SDS011;29213;50.770;7.298;2024-02-15T02:28:00;2.67;;;1.38;;
43620;SDS011;29213;50.770;7.298;2024-02-15T02:30:26;3.97;;;1.60;;
43620;SDS011;29213;50.770;7.298;2024-02-15T02:32:57;4.43;;;1.60;;
43620;SDS011;29213;50.770;7.298;2024-02-15T02:35:24;3.10;;;1.50;;
43620;SDS011;29213;50.770;7.298;2024-02-15T02:37:50;5.18;;;1.88;;
43620;SDS011;29213;50.770;7.298;2024-02-15T02:40:18;4.05;;;1.85;;
43620;SDS011;29213;50.770;7.298;2024-02-15T02:42:50;3.80;;;2.00;;
43620;SDS011;29213;50.770;7.298;2024-02-15T02:45:18;4.60;;;2.10;;
43620;SDS011;29213;50.770;7.298;2024-02-15T02:47:45;3.47;;;1.90;;
43620;SDS011;29213;50.770;7.298;2024-02-15T02:50:12;3.28;;;1.70;;
43620;SDS011;29213;50.770;7.298;2024-02-15T02:52:38;3.70;;;1.80;;
43620;SDS011;29213;50.770;7.298;2024-02-15T02:55:04;3.90;;;1.65;;
43620;SDS011;29213;50.770;7.298;2024-02-15T02:57:36;4.30;;;2.00;;
43620;SDS011;29213;50.770;7.298;2024-02-15T03:00:06;5.20;;;1.73;;
43620;SDS011;29213;50.770;7.298;2024-02-15T03:02:36;3.08;;;1.60;;
43620;SDS011;29213;50.770;7.298;2024-02-15T03:05:05;3.72;;;1.90;;
43620;SDS011;29213;50.770;7.298;2024-02-15T03:07:33;2.95;;;1.40;;
43620;SDS011;29213;50.770;7.298;2024-02-15T03:09:59;4.10;;;1.60;;
43620;SDS011;29213;50.770;7.298;2024-02-15T03:12:25;4.75;;;1.55;;
43620;SDS011;29213;50.770;7.298;2024-02-15T03:14:52;3.78;;;1.65;;
43620;SDS011;29213;50.770;7.298;2024-02-15T03:17:17;3.78;;;1.63;;
43620;SDS011;29213;50.770;7.298;2024-02-15T03:19:43;4.70;;;1.55;;
43620;SDS011;29213;50.770;7.298;2024-02-15T03:22:08;3.72;;;1.60;;
43620;SDS011;29213;50.770;7.298;2024-02-15T03:24:34;4.13;;;1.70;;
43620;SDS011;29213;50.770;7.298;2024-02-15T03:26:59;4.65;;;1.70;;
43620;SDS011;29213;50.770;7.298;2024-02-15T03:29:25;2.63;;;1.38;;
43620;SDS011;29213;50.770;7.298;2024-02-15T03:31:50;3.60;;;1.40;;
43620;SDS011;29213;50.770;7.298;2024-02-15T03:34:18;3.15;;;1.70;;
43620;SDS011;29213;50.770;7.298;2024-02-15T03:36:46;3.67;;;1.77;;
43620;SDS011;29213;50.770;7.298;2024-02-15T03:39:16;2.85;;;1.50;;
43620;SDS011;29213;50.770;7.298;2024-02-15T03:41:42;4.05;;;1.40;;
43620;SDS011;29213;50.770;7.298;2024-02-15T03:44:11;3.95;;;1.60;;
43620;SDS011;29213;50.770;7.298;2024-02-15T03:46:38;3.92;;;1.50;;
43620;SDS011;29213;50.770;7.298;2024-02-15T03:49:03;3.65;;;1.50;;
43620;SDS011;29213;50.770;7.298;2024-02-15T03:51:28;3.13;;;1.38;;
43620;SDS011;29213;50.770;7.298;2024-02-15T03:53:54;4.38;;;1.50;;
43620;SDS011;29213;50.770;7.298;2024-02-15T03:56:19;4.00;;;1.80;;
43620;SDS011;29213;50.770;7.298;2024-02-15T03:58:46;4.63;;;1.88;;
43620;SDS011;29213;50.770;7.298;2024-02-15T04:01:12;4.32;;;1.88;;
43620;SDS011;29213;50.770;7.298;2024-02-15T04:03:40;3.78;;;2.05;;
43620;SDS011;29213;50.770;7.298;2024-02-15T04:06:06;4.20;;;1.60;;
43620;SDS011;29213;50.770;7.298;2024-02-15T04:08:31;3.83;;;1.60;;
43620;SDS011;29213;50.770;7.298;2024-02-15T04:10:57;3.33;;;1.65;;
43620;SDS011;29213;50.770;7.298;2024-02-15T04:13:23;2.70;;;1.60;;
43620;SDS011;29213;50.770;7.298;2024-02-15T04:15:49;3.60;;;1.60;;
43620;SDS011;29213;50.770;7.298;2024-02-15T04:18:15;3.53;;;1.80;;
43620;SDS011;29213;50.770;7.298;2024-02-15T04:20:43;3.08;;;1.70;;
43620;SDS011;29213;50.770;7.298;2024-02-15T04:23:13;5.30;;;2.00;;
43620;SDS011;29213;50.770;7.298;2024-02-15T04:25:38;6.50;;;2.20;;
43620;SDS011;29213;50.770;7.298;2024-02-15T04:28:05;4.20;;;1.90;;
43620;SDS011;29213;50.770;7.298;2024-02-15T04:30:31;3.67;;;1.60;;
43620;SDS011;29213;50.770;7.298;2024-02-15T04:32:57;6.93;;;1.75;;
43620;SDS011;29213;50.770;7.298;2024-02-15T04:35:23;3.50;;;1.63;;
43620;SDS011;29213;50.770;7.298;2024-02-15T04:37:52;4.28;;;1.70;;
43620;SDS011;29213;50.770;7.298;2024-02-15T04:40:18;4.15;;;1.85;;
43620;SDS011;29213;50.770;7.298;2024-02-15T04:42:44;3.60;;;1.73;;
43620;SDS011;29213;50.770;7.298;2024-02-15T04:45:12;4.10;;;1.83;;
43620;SDS011;29213;50.770;7.298;2024-02-15T04:47:40;3.45;;;1.88;;
43620;SDS011;29213;50.770;7.298;2024-02-15T04:50:06;3.40;;;1.80;;
43620;SDS011;29213;50.770;7.298;2024-02-15T04:52:32;3.90;;;1.80;;
43620;SDS011;29213;50.770;7.298;2024-02-15T04:54:57;3.88;;;1.55;;
43620;SDS011;29213;50.770;7.298;2024-02-15T04:57:26;3.50;;;1.85;;
43620;SDS011;29213;50.770;7.298;2024-02-15T04:59:55;3.58;;;1.75;;
43620;SDS011;29213;50.770;7.298;2024-02-15T05:02:21;4.53;;;1.92;;
43620;SDS011;29213;50.770;7.298;2024-02-15T05:04:49;3.00;;;1.70;;
43620;SDS011;29213;50.770;7.298;2024-02-15T05:07:20;3.40;;;1.88;;
43620;SDS011;29213;50.770;7.298;2024-02-15T05:09:47;5.30;;;2.03;;
43620;SDS011;29213;50.770;7.298;2024-02-15T05:12:21;3.75;;;1.60;;
43620;SDS011;29213;50.770;7.298;2024-02-15T05:14:47;3.33;;;1.67;;
43620;SDS011;29213;50.770;7.298;2024-02-15T05:17:13;2.95;;;1.50;;
43620;SDS011;29213;50.770;7.298;2024-02-15T05:19:39;4.10;;;1.80;;
43620;SDS011;29213;50.770;7.298;2024-02-15T05:22:04;3.03;;;1.55;;
43620;SDS011;29213;50.770;7.298;2024-02-15T05:24:31;3.58;;;1.85;;
43620;SDS011;29213;50.770;7.298;2024-02-15T05:26:58;4.70;;;1.92;;
43620;SDS011;29213;50.770;7.298;2024-02-15T05:29:23;5.18;;;1.50;;
43620;SDS011;29213;50.770;7.298;2024-02-15T05:31:49;3.38;;;1.73;;
43620;SDS011;29213;50.770;7.298;2024-02-15T05:34:17;5.85;;;1.80;;
43620;SDS011;29213;50.770;7.298;2024-02-15T05:36:42;3.30;;;1.65;;
43620;SDS011;29213;50.770;7.298;2024-02-15T05:39:08;4.70;;;1.73;;
43620;SDS011;29213;50.770;7.298;2024-02-15T05:41:36;3.75;;;1.60;;
43620;SDS011;29213;50.770;7.298;2024-02-15T05:44:02;4.00;;;1.52;;
43620;SDS011;29213;50.770;7.298;2024-02-15T05:46:31;6.03;;;1.95;;
43620;SDS011;29213;50.770;7.298;2024-02-15T05:48:57;4.20;;;1.90;;
43620;SDS011;29213;50.770;7.298;2024-02-15T05:51:22;3.20;;;1.50;;
43620;SDS011;29213;50.770;7.298;2024-02-15T05:53:48;3.13;;;1.60;;
43620;SDS011;29213;50.770;7.298;2024-02-15T05:56:14;3.65;;;1.70;;
43620;SDS011;29213;50.770;7.298;2024-02-15T05:58:41;3.03;;;1.50;;
43620;SDS011;29213;50.770;7.298;2024-02-15T06:01:07;2.88;;;1.50;;
43620;SDS011;29213;50.770;7.298;2024-02-15T06:03:33;3.97;;;1.80;;
43620;SDS011;29213;50.770;7.298;2024-02-15T06:06:01;2.90;;;1.60;;
43620;SDS011;29213;50.770;7.298;2024-02-15T06:10:57;3.30;;;1.60;;
43620;SDS011;29213;50.770;7.298;2024-02-15T06:13:23;5.20;;;1.92;;
43620;SDS011;29213;50.770;7.298;2024-02-15T06:15:49;4.85;;;1.90;;
43620;SDS011;29213;50.770;7.298;2024-02-15T06:18:21;3.92;;;2.10;;
43620;SDS011;29213;50.770;7.298;2024-02-15T06:20:49;7.63;;;2.70;;
43620;SDS011;29213;50.770;7.298;2024-02-15T06:23:16;5.88;;;2.58;;
43620;SDS011;29213;50.770;7.298;2024-02-15T06:25:45;6.43;;;2.97;;
43620;SDS011;29213;50.770;7.298;2024-02-15T06:28:12;5.20;;;2.60;;
43620;SDS011;29213;50.770;7.298;2024-02-15T06:30:44;5.18;;;2.78;;
43620;SDS011;29213;50.770;7.298;2024-02-15T06:33:32;4.75;;;2.80;;
43620;SDS011;29213;50.770;7.298;2024-02-15T06:36:15;4.30;;;2.53;;
43620;SDS011;29213;50.770;7.298;2024-02-15T06:39:00;4.68;;;2.50;;
43620;SDS011;29213;50.770;7.298;2024-02-15T06:41:44;5.72;;;2.97;;
43620;SDS011;29213;50.770;7.298;2024-02-15T06:44:09;4.60;;;2.70;;
43620;SDS011;29213;50.770;7.298;2024-02-15T06:46:35;4.43;;;2.55;;
43620;SDS011;29213;50.770;7.298;2024-02-15T06:49:00;4.72;;;2.60;;
43620;SDS011;29213;50.770;7.298;2024-02-15T06:51:26;4.35;;;2.30;;
43620;SDS011;29213;50.770;7.298;2024-02-15T06:53:52;5.90;;;2.55;;
43620;SDS011;29213;50.770;7.298;2024-02-15T06:56:20;8.75;;;3.30;;
43620;SDS011;29213;50.770;7.298;2024-02-15T06:58:46;7.93;;;2.55;;
43620;SDS011;29213;50.770;7.298;2024-02-15T07:01:13;5.32;;;2.60;;
43620;SDS011;29213;50.770;7.298;2024-02-15T07:03:41;4.25;;;2.60;;
43620;SDS011;29213;50.770;7.298;2024-02-15T07:06:09;4.68;;;2.63;;
43620;SDS011;29213;50.770;7.298;2024-02-15T07:08:34;4.63;;;2.40;;
43620;SDS011;29213;50.770;7.298;2024-02-15T07:11:00;5.20;;;2.60;;
43620;SDS011;29213;50.770;7.298;2024-02-15T07:13:29;4.22;;;2.60;;
43620;SDS011;29213;50.770;7.298;2024-02-15T07:15:54;6.22;;;3.05;;
43620;SDS011;29213;50.770;7.298;2024-02-15T07:18:19;6.85;;;3.47;;
43620;SDS011;29213;50.770;7.298;2024-02-15T07:20:47;6.25;;;2.95;;
43620;SDS011;29213;50.770;7.298;2024-02-15T07:23:12;5.07;;;3.10;;
43620;SDS011;29213;50.770;7.298;2024-02-15T07:25:38;7.00;;;3.30;;
43620;SDS011;29213;50.770;7.298;2024-02-15T07:28:04;5.43;;;2.88;;
43620;SDS011;29213;50.770;7.298;2024-02-15T07:30:30;5.93;;;3.10;;
43620;SDS011;29213;50.770;7.298;2024-02-15T07:32:56;7.32;;;4.20;;
43620;SDS011;29213;50.770;7.298;2024-02-15T07:35:22;5.82;;;3.65;;
43620;SDS011;29213;50.770;7.298;2024-02-15T07:37:53;7.15;;;3.90;;
43620;SDS011;29213;50.770;7.298;2024-02-15T07:40:24;9.73;;;4.80;;
43620;SDS011;29213;50.770;7.298;2024-02-15T07:42:53;7.70;;;4.67;;
43620;SDS011;29213;50.770;7.298;2024-02-15T07:45:19;7.97;;;4.30;;
43620;SDS011;29213;50.770;7.298;2024-02-15T07:47:45;7.70;;;4.43;;
43620;SDS011;29213;50.770;7.298;2024-02-15T07:50:10;7.05;;;3.95;;
43620;SDS011;29213;50.770;7.298;2024-02-15T07:52:36;6.95;;;3.97;;
43620;SDS011;29213;50.770;7.298;2024-02-15T07:55:01;6.72;;;3.67;;
43620;SDS011;29213;50.770;7.298;2024-02-15T07:57:34;8.52;;;4.10;;
43620;SDS011;29213;50.770;7.298;2024-02-15T07:59:59;7.78;;;3.90;;
43620;SDS011;29213;50.770;7.298;2024-02-15T08:02:25;6.25;;;3.30;;
43620;SDS011;29213;50.770;7.298;2024-02-15T08:04:53;6.57;;;3.70;;
43620;SDS011;29213;50.770;7.298;2024-02-15T08:07:19;6.88;;;4.20;;
43620;SDS011;29213;50.770;7.298;2024-02-15T08:09:46;7.75;;;3.58;;
43620;SDS011;29213;50.770;7.298;2024-02-15T08:12:12;7.10;;;4.80;;
43620;SDS011;29213;50.770;7.298;2024-02-15T08:14:37;7.40;;;4.10;;
43620;SDS011;29213;50.770;7.298;2024-02-15T08:17:05;8.02;;;3.50;;
43620;SDS011;29213;50.770;7.298;2024-02-15T08:19:33;9.27;;;3.67;;
43620;SDS011;29213;50.770;7.298;2024-02-15T08:22:08;7.47;;;3.38;;
43620;SDS011;29213;50.770;7.298;2024-02-15T08:24:34;8.07;;;3.10;;
43620;SDS011;29213;50.770;7.298;2024-02-15T08:27:01;6.40;;;3.55;;
43620;SDS011;29213;50.770;7.298;2024-02-15T08:29:29;6.32;;;3.22;;
43620;SDS011;29213;50.770;7.298;2024-02-15T08:31:55;6.18;;;3.42;;
43620;SDS011;29213;50.770;7.298;2024-02-15T08:34:20;6.68;;;3.22;;
43620;SDS011;29213;50.770;7.298;2024-02-15T08:36:46;5.45;;;2.67;;
43620;SDS011;29213;50.770;7.298;2024-02-15T08:39:13;6.57;;;2.67;;
43620;SDS011;29213;50.770;7.298;2024-02-15T08:41:41;5.03;;;2.50;;
43620;SDS011;29213;50.770;7.298;2024-02-15T08:44:07;6.70;;;2.50;;
43620;SDS011;29213;50.770;7.298;2024-02-15T08:46:36;4.85;;;2.10;;
43620;SDS011;29213;50.770;7.298;2024-02-15T08:49:02;5.75;;;2.20;;
43620;SDS011;29213;50.770;7.298;2024-02-15T08:51:28;5.78;;;2.38;;
43620;SDS011;29213;50.770;7.298;2024-02-15T08:53:55;6.60;;;2.30;;
43620;SDS011;29213;50.770;7.298;2024-02-15T08:56:21;5.68;;;2.25;;
43620;SDS011;29213;50.770;7.298;2024-02-15T08:58:48;6.70;;;2.28;;
43620;SDS011;29213;50.770;7.298;2024-02-15T09:01:13;6.95;;;2.17;;
43620;SDS011;29213;50.770;7.298;2024-02-15T09:03:39;6.45;;;2.30;;
43620;SDS011;29213;50.770;7.298;2024-02-15T09:06:04;9.50;;;2.42;;
43620;SDS011;29213;50.770;7.298;2024-02-15T09:08:30;5.70;;;2.00;;
43620;SDS011;29213;50.770;7.298;2024-02-15T09:10:55;5.38;;;2.00;;
43620;SDS011;29213;50.770;7.298;2024-02-15T09:13:23;6.28;;;2.20;;
43620;SDS011;29213;50.770;7.298;2024-02-15T09:15:48;9.15;;;2.45;;
43620;SDS011;29213;50.770;7.298;2024-02-15T09:18:15;5.95;;;2.22;;
43620;SDS011;29213;50.770;7.298;2024-02-15T09:20:43;6.45;;;2.00;;
43620;SDS011;29213;50.770;7.298;2024-02-15T09:23:11;6.25;;;2.13;;
43620;SDS011;29213;50.770;7.298;2024-02-15T09:25:40;6.82;;;1.95;;
43620;SDS011;29213;50.770;7.298;2024-02-15T09:28:08;6.65;;;2.13;;
43620;SDS011;29213;50.770;7.298;2024-02-15T09:30:34;6.22;;;1.90;;
43620;SDS011;29213;50.770;7.298;2024-02-15T09:33:00;5.93;;;1.90;;
43620;SDS011;29213;50.770;7.298;2024-02-15T09:35:30;5.40;;;2.13;;
43620;SDS011;29213;50.770;7.298;2024-02-15T09:37:55;6.53;;;1.92;;
43620;SDS011;29213;50.770;7.298;2024-02-15T09:40:21;4.78;;;2.10;;
43620;SDS011;29213;50.770;7.298;2024-02-15T09:42:50;7.43;;;2.25;;
43620;SDS011;29213;50.770;7.298;2024-02-15T09:45:17;5.63;;;1.92;;
43620;SDS011;29213;50.770;7.298;2024-02-15T09:47:43;5.88;;;1.95;;
43620;SDS011;29213;50.770;7.298;2024-02-15T09:50:10;6.78;;;2.20;;
43620;SDS011;29213;50.770;7.298;2024-02-15T09:52:39;6.60;;;1.88;;
43620;SDS011;29213;50.770;7.298;2024-02-15T09:55:05;5.13;;;2.03;;
43620;SDS011;29213;50.770;7.298;2024-02-15T09:57:35;5.35;;;1.90;;
43620;SDS011;29213;50.770;7.298;2024-02-15T10:00:01;5.43;;;2.03;;
43620;SDS011;29213;50.770;7.298;2024-02-15T10:02:28;5.00;;;1.85;;
43620;SDS011;29213;50.770;7.298;2024-02-15T10:04:55;5.30;;;1.88;;
43620;SDS011;29213;50.770;7.298;2024-02-15T10:07:25;4.03;;;1.77;;
43620;SDS011;29213;50.770;7.298;2024-02-15T10:09:52;4.00;;;1.70;;
43620;SDS011;29213;50.770;7.298;2024-02-15T10:12:17;4.53;;;1.83;;
43620;SDS011;29213;50.770;7.298;2024-02-15T10:14:50;6.28;;;2.08;;
43620;SDS011;29213;50.770;7.298;2024-02-15T10:17:20;4.57;;;2.03;;
43620;SDS011;29213;50.770;7.298;2024-02-15T10:19:50;5.63;;;2.28;;
43620;SDS011;29213;50.770;7.298;2024-02-15T10:22:28;6.80;;;2.08;;
43620;SDS011;29213;50.770;7.298;2024-02-15T10:24:59;5.85;;;1.98;;
43620;SDS011;29213;50.770;7.298;2024-02-15T10:27:36;5.55;;;1.90;;
43620;SDS011;29213;50.770;7.298;2024-02-15T10:30:21;3.67;;;1.58;;
43620;SDS011;29213;50.770;7.298;2024-02-15T10:32:48;5.78;;;1.88;;
43620;SDS011;29213;50.770;7.298;2024-02-15T10:35:20;5.18;;;2.05;;
43620;SDS011;29213;50.770;7.298;2024-02-15T10:37:49;4.47;;;1.85;;
43620;SDS011;29213;50.770;7.298;2024-02-15T10:40:19;5.70;;;1.90;;
43620;SDS011;29213;50.770;7.298;2024-02-15T10:42:48;4.97;;;2.05;;
43620;SDS011;29213;50.770;7.298;2024-02-15T10:45:17;4.45;;;2.00;;
43620;SDS011;29213;50.770;7.298;2024-02-15T10:47:46;5.38;;;2.10;;
43620;SDS011;29213;50.770;7.298;2024-02-15T10:50:15;6.03;;;2.20;;
43620;SDS011;29213;50.770;7.298;2024-02-15T10:56:12;5.55;;;1.80;;
43620;SDS011;29213;50.770;7.298;2024-02-15T10:58:54;5.53;;;2.13;;
43620;SDS011;29213;50.770;7.298;2024-02-15T11:01:25;5.50;;;1.85;;
43620;SDS011;29213;50.770;7.298;2024-02-15T11:03:57;5.68;;;2.10;;
43620;SDS011;29213;50.770;7.298;2024-02-15T11:06:27;5.68;;;1.95;;
43620;SDS011;29213;50.770;7.298;2024-02-15T11:08:55;5.38;;;2.00;;
43620;SDS011;29213;50.770;7.298;2024-02-15T11:11:21;8.70;;;2.30;;
43620;SDS011;29213;50.770;7.298;2024-02-15T11:13:47;5.15;;;2.20;;
43620;SDS011;29213;50.770;7.298;2024-02-15T11:16:39;5.22;;;2.22;;
43620;SDS011;29213;50.770;7.298;2024-02-15T11:19:05;7.25;;;2.20;;
43620;SDS011;29213;50.770;7.298;2024-02-15T11:24:29;5.88;;;2.17;;
43620;SDS011;29213;50.770;7.298;2024-02-15T11:26:57;5.15;;;2.40;;
43620;SDS011;29213;50.770;7.298;2024-02-15T11:32:35;5.20;;;2.00;;
43620;SDS011;29213;50.770;7.298;2024-02-15T11:35:18;5.68;;;1.90;;
43620;SDS011;29213;50.770;7.298;2024-02-15T11:40:28;6.50;;;2.00;;
43620;SDS011;29213;50.770;7.298;2024-02-15T11:43:06;4.38;;;1.90;;
43620;SDS011;29213;50.770;7.298;2024-02-15T11:45:32;4.43;;;1.80;;
43620;SDS011;29213;50.770;7.298;2024-02-15T11:48:02;5.15;;;2.13;;
43620;SDS011;29213;50.770;7.298;2024-02-15T11:50:28;6.00;;;2.08;;
43620;SDS011;29213;50.770;7.298;2024-02-15T11:53:01;6.38;;;2.28;;
43620;SDS011;29213;50.770;7.298;2024-02-15T11:55:31;4.15;;;2.00;;
43620;SDS011;29213;50.770;7.298;2024-02-15T11:58:02;5.30;;;2.10;;
43620;SDS011;29213;50.770;7.298;2024-02-15T12:00:48;4.93;;;2.00;;
43620;SDS011;29213;50.770;7.298;2024-02-15T12:03:32;6.57;;;2.05;;
43620;SDS011;29213;50.770;7.298;2024-02-15T12:06:16;5.50;;;2.10;;
43620;SDS011;29213;50.770;7.298;2024-02-15T12:09:01;4.00;;;1.75;;
43620;SDS011;29213;50.770;7.298;2024-02-15T12:11:46;5.10;;;1.88;;
43620;SDS011;29213;50.770;7.298;2024-02-15T12:14:30;3.70;;;1.70;;
43620;SDS011;29213;50.770;7.298;2024-02-15T12:17:14;3.90;;;1.65;;
43620;SDS011;29213;50.770;7.298;2024-02-15T12:20:01;4.45;;;1.80;;
43620;SDS011;29213;50.770;7.298;2024-02-15T12:22:36;6.35;;;1.80;;
43620;SDS011;29213;50.770;7.298;2024-02-15T12:25:06;4.05;;;1.52;;
43620;SDS011;29213;50.770;7.298;2024-02-15T12:27:45;4.82;;;1.50;;
43620;SDS011;29213;50.770;7.298;2024-02-15T12:30:15;4.90;;;1.70;;
43620;SDS011;29213;50.770;7.298;2024-02-15T12:32:45;3.40;;;1.30;;
43620;SDS011;29213;50.770;7.298;2024-02-15T12:35:13;4.18;;;1.63;;
43620;SDS011;29213;50.770;7.298;2024-02-15T12:40:29;3.70;;;1.48;;
43620;SDS011;29213;50.770;7.298;2024-02-15T12:42:55;3.53;;;1.42;;
43620;SDS011;29213;50.770;7.298;2024-02-15T12:45:21;4.82;;;1.45;;
43620;SDS011;29213;50.770;7.298;2024-02-15T12:47:50;3.10;;;1.30;;
43620;SDS011;29213;50.770;7.298;2024-02-15T12:50:17;4.82;;;1.33;;
43620;SDS011;29213;50.770;7.298;2024-02-15T12:52:51;3.45;;;1.52;;
43620;SDS011;29213;50.770;7.298;2024-02-15T12:55:21;4.75;;;1.70;;
43620;SDS011;29213;50.770;7.298;2024-02-15T12:57:50;3.42;;;1.58;;
43620;SDS011;29213;50.770;7.298;2024-02-15T13:00:20;4.45;;;1.50;;
43620;SDS011;29213;50.770;7.298;2024-02-15T13:02:48;4.30;;;1.58;;
43620;SDS011;29213;50.770;7.298;2024-02-15T13:05:17;5.32;;;1.80;;
43620;SDS011;29213;50.770;7.298;2024-02-15T13:07:44;5.68;;;2.00;;
43620;SDS011;29213;50.770;7.298;2024-02-15T13:10:11;6.47;;;1.73;;
43620;SDS011;29213;50.770;7.298;2024-02-15T13:12:36;4.38;;;1.60;;
43620;SDS011;29213;50.770;7.298;2024-02-15T13:15:05;4.75;;;1.60;;
43620;SDS011;29213;50.770;7.298;2024-02-15T13:17:32;3.97;;;1.50;;
43620;SDS011;29213;50.770;7.298;2024-02-15T13:19:59;6.97;;;1.60;;
43620;SDS011;29213;50.770;7.298;2024-02-15T13:22:30;3.85;;;1.60;;
43620;SDS011;29213;50.770;7.298;2024-02-15T13:24:56;3.72;;;1.50;;
43620;SDS011;29213;50.770;7.298;2024-02-15T13:27:21;4.43;;;1.60;;
43620;SDS011;29213;50.770;7.298;2024-02-15T13:29:48;3.30;;;1.50;;
43620;SDS011;29213;50.770;7.298;2024-02-15T13:32:13;4.28;;;1.50;;
43620;SDS011;29213;50.770;7.298;2024-02-15T13:34:42;4.72;;;1.60;;
43620;SDS011;29213;50.770;7.298;2024-02-15T13:37:07;5.68;;;1.40;;
43620;SDS011;29213;50.770;7.298;2024-02-15T13:39:33;4.05;;;1.38;;
43620;SDS011;29213;50.770;7.298;2024-02-15T13:42:02;3.75;;;1.63;;
43620;SDS011;29213;50.770;7.298;2024-02-15T13:44:27;5.13;;;1.73;;
43620;SDS011;29213;50.770;7.298;2024-02-15T13:46:56;4.95;;;1.65;;
43620;SDS011;29213;50.770;7.298;2024-02-15T13:49:22;3.72;;;1.60;;
43620;SDS011;29213;50.770;7.298;2024-02-15T13:51:48;3.85;;;1.55;;
43620;SDS011;29213;50.770;7.298;2024-02-15T13:54:14;4.30;;;1.58;;
43620;SDS011;29213;50.770;7.298;2024-02-15T13:56:39;4.60;;;1.38;;
43620;SDS011;29213;50.770;7.298;2024-02-15T13:59:05;3.80;;;1.40;;
43620;SDS011;29213;50.770;7.298;2024-02-15T14:01:31;4.20;;;1.50;;
43620;SDS011;29213;50.770;7.298;2024-02-15T14:03:56;60.35;;;6.32;;
43620;SDS011;29213;50.770;7.298;2024-02-15T14:06:22;6.53;;;1.77;;
43620;SDS011;29213;50.770;7.298;2024-02-15T14:08:48;3.85;;;1.60;;
43620;SDS011;29213;50.770;7.298;2024-02-15T14:11:16;4.07;;;1.52;;
43620;SDS011;29213;50.770;7.298;2024-02-15T14:13:42;4.35;;;1.50;;
43620;SDS011;29213;50.770;7.298;2024-02-15T14:16:08;3.33;;;1.40;;
43620;SDS011;29213;50.770;7.298;2024-02-15T14:18:33;5.75;;;1.70;;
43620;SDS011;29213;50.770;7.298;2024-02-15T14:21:00;4.13;;;1.40;;
43620;SDS011;29213;50.770;7.298;2024-02-15T14:23:25;4.55;;;1.60;;
43620;SDS011;29213;50.770;7.298;2024-02-15T14:25:52;4.60;;;1.40;;
43620;SDS011;29213;50.770;7.298;2024-02-15T14:28:19;6.35;;;1.58;;
43620;SDS011;29213;50.770;7.298;2024-02-15T14:30:44;4.03;;;1.58;;
43620;SDS011;29213;50.770;7.298;2024-02-15T14:33:28;5.18;;;1.70;;
43620;SDS011;29213;50.770;7.298;2024-02-15T14:35:54;6.18;;;1.65;;
43620;SDS011;29213;50.770;7.298;2024-02-15T14:38:20;3.45;;;1.48;;
43620;SDS011;29213;50.770;7.298;2024-02-15T14:40:47;3.67;;;1.60;;
43620;SDS011;29213;50.770;7.298;2024-02-15T14:43:25;4.18;;;1.55;;
43620;SDS011;29213;50.770;7.298;2024-02-15T14:45:51;5.10;;;1.33;;
43620;SDS011;29213;50.770;7.298;2024-02-15T14:48:18;5.00;;;1.50;;
43620;SDS011;29213;50.770;7.298;2024-02-15T14:50:45;5.85;;;1.50;;
43620;SDS011;29213;50.770;7.298;2024-02-15T14:53:14;5.45;;;1.50;;
43620;SDS011;29213;50.770;7.298;2024-02-15T14:55:40;5.18;;;1.48;;
43620;SDS011;29213;50.770;7.298;2024-02-15T14:58:08;3.25;;;1.20;;
43620;SDS011;29213;50.770;7.298;2024-02-15T15:00:37;3.63;;;1.20;;
43620;SDS011;29213;50.770;7.298;2024-02-15T15:03:03;3.92;;;1.40;;
43620;SDS011;29213;50.770;7.298;2024-02-15T15:05:28;5.60;;;1.73;;
43620;SDS011;29213;50.770;7.298;2024-02-15T15:08:12;4.30;;;1.40;;
43620;SDS011;29213;50.770;7.298;2024-02-15T15:10:57;4.72;;;1.27;;